Plain Dealing, Louisiana
Current Conditions -  °F | °C
As of 6:31 AM on Friday 21 Nov 2014 (Local Time) from KDTN Reporting Station
Light Rain Light Rain  
Wind Chill: 12°   Ceiling: 4400
Heat Index: 12°   Visibility: 5mi
Dew Point: 11°   Wind: 13mph
Humidity: 93%   Direction: 140°SE
Pressure: 30.18"   Gusts: NA
Location:  32.91°N, 93.7°W
Report Text: KDTN 211231Z AUTO 14011KT 5SM -RA BR FEW007 BKN044 OVC060 12/11 A3018 RMK AO2 P0002 T01170106
Loading
Personal Weather Stations






























Interactive Weather Map New forecast layout! Learn more

10-Day Weather Forecast

Advertisements
Track Severe Weather on mobile